createdAt,value
2023-01-30T00:01:13.144Z,995.4
2023-01-30T00:06:32.194Z,995.4
2023-01-30T00:11:51.214Z,995.4
2023-01-30T00:17:10.161Z,995.5
2023-01-30T00:22:29.392Z,995.6
2023-01-30T00:27:49.085Z,995.6
2023-01-30T00:33:08.156Z,995.8
2023-01-30T00:38:27.027Z,995.7
2023-01-30T00:43:46.728Z,995.7
2023-01-30T00:49:06.196Z,995.5
2023-01-30T00:54:25.048Z,995.4
2023-01-30T00:59:44.669Z,995.3
2023-01-30T01:05:03.122Z,995.3
2023-01-30T01:10:22.671Z,995.3
2023-01-30T01:15:42.167Z,995.2
2023-01-30T01:21:01.384Z,995.2
2023-01-30T01:26:21.146Z,995
2023-01-30T01:31:40.781Z,994.7
2023-01-30T01:37:00.010Z,994.6
2023-01-30T01:42:19.596Z,994.6
2023-01-30T01:47:39.308Z,994.5
2023-01-30T01:52:58.184Z,994.3
2023-01-30T01:58:17.417Z,994.3
2023-01-30T02:03:36.842Z,994.2
2023-01-30T02:08:56.331Z,994.1
2023-01-30T02:14:15.616Z,994.2
2023-01-30T02:19:34.818Z,994
2023-01-30T02:24:53.712Z,994
2023-01-30T02:30:13.109Z,994.1
2023-01-30T02:35:31.841Z,994
2023-01-30T02:40:50.970Z,993.9
2023-01-30T02:46:10.562Z,993.8
2023-01-30T02:51:30.939Z,993.5
2023-01-30T02:56:50.184Z,993.5
2023-01-30T03:02:09.290Z,993.2
2023-01-30T03:07:28.085Z,993.1
2023-01-30T03:12:47.782Z,993.1
2023-01-30T03:18:07.182Z,993.2
2023-01-30T03:23:26.751Z,993
2023-01-30T03:29:12.562Z,993.1
2023-01-30T03:34:32.004Z,993.1
2023-01-30T03:39:51.016Z,993.2
2023-01-30T03:45:10.519Z,993
2023-01-30T03:50:29.942Z,993.3
2023-01-30T03:55:48.880Z,993.1
2023-01-30T04:02:23.151Z,993.3
2023-01-30T04:06:28.519Z,993.3
2023-01-30T04:11:47.172Z,993.1
2023-01-30T04:17:06.682Z,993.2
2023-01-30T04:22:25.944Z,993
2023-01-30T04:27:45.524Z,993
2023-01-30T04:33:04.689Z,993
2023-01-30T04:38:24.153Z,993
2023-01-30T04:43:43.312Z,992.9
2023-01-30T04:49:02.284Z,992.9
2023-01-30T04:54:21.865Z,993
2023-01-30T05:00:56.101Z,992.8
2023-01-30T05:05:02.051Z,992.7
2023-01-30T05:10:21.905Z,992.8
2023-01-30T05:15:41.038Z,992.8
2023-01-30T05:21:00.450Z,992.7
2023-01-30T05:26:20.466Z,992.9
2023-01-30T05:31:39.882Z,992.7
2023-01-30T05:36:58.915Z,992.8
2023-01-30T05:42:18.406Z,992.8
2023-01-30T05:47:38.210Z,992.7
2023-01-30T05:52:57.936Z,992.5
2023-01-30T05:58:17.589Z,992.5
2023-01-30T06:03:36.903Z,992.6
2023-01-30T06:08:56.627Z,992.6
2023-01-30T06:14:15.692Z,992.5
2023-01-30T06:19:35.053Z,992.3
2023-01-30T06:24:54.263Z,992.4
2023-01-30T06:30:13.939Z,992.5
2023-01-30T06:35:33.137Z,992.4
2023-01-30T06:40:52.876Z,992.6
2023-01-30T06:46:12.752Z,992.5
2023-01-30T06:51:31.340Z,992.5
2023-01-30T06:56:50.532Z,992.6
2023-01-30T07:02:09.838Z,992.6
2023-01-30T07:07:28.630Z,992.5
2023-01-30T07:12:47.958Z,992.3
2023-01-30T07:18:06.924Z,992.2
2023-01-30T07:23:26.448Z,992.2
2023-01-30T07:28:46.079Z,992.2
2023-01-30T07:34:04.897Z,992.1
2023-01-30T07:39:24.293Z,992.2
2023-01-30T07:44:42.487Z,992.1
2023-01-30T07:50:01.927Z,992.1
2023-01-30T07:55:21.723Z,991.9
2023-01-30T08:00:41.290Z,991.6
2023-01-30T08:06:00.364Z,991.7
2023-01-30T08:11:19.416Z,991.5
2023-01-30T08:16:39.232Z,991.6
2023-01-30T08:21:58.776Z,991.8
2023-01-30T08:27:18.353Z,991.8
2023-01-30T08:32:37.683Z,991.8
2023-01-30T08:37:57.392Z,991.7
2023-01-30T08:43:16.872Z,991.6
2023-01-30T08:48:47.590Z,991.7
2023-01-30T08:53:55.288Z,991.8
2023-01-30T08:59:14.966Z,991.8
2023-01-30T09:04:34.169Z,991.9
2023-01-30T09:09:53.417Z,992
2023-01-30T09:15:12.357Z,991.7
2023-01-30T09:20:31.654Z,991.6
2023-01-30T09:25:50.268Z,991.6
2023-01-30T09:31:09.638Z,991.4
2023-01-30T09:36:29.225Z,991.5
2023-01-30T09:41:48.121Z,991.7
2023-01-30T09:47:08.305Z,991.6
2023-01-30T09:52:27.409Z,991.3
2023-01-30T09:57:46.847Z,991.3
2023-01-30T10:03:06.386Z,991.4
2023-01-30T10:08:25.719Z,991.4
2023-01-30T10:13:45.227Z,991.1
2023-01-30T10:19:04.843Z,991.1
2023-01-30T10:24:24.226Z,991
2023-01-30T10:29:43.497Z,990.8
2023-01-30T10:35:02.655Z,990.9
2023-01-30T10:40:22.254Z,990.6
2023-01-30T10:45:41.202Z,990.7
2023-01-30T10:51:00.145Z,990.7
2023-01-30T10:56:19.582Z,990.7
2023-01-30T11:01:38.699Z,990.8
2023-01-30T11:06:57.808Z,990.6
2023-01-30T11:12:17.620Z,990.7
2023-01-30T11:19:19.323Z,990.8
2023-01-30T11:28:16.279Z,991.1
2023-01-30T11:33:34.599Z,991
2023-01-30T11:38:53.546Z,990.8
2023-01-30T11:44:12.891Z,990.9
2023-01-30T11:49:45.932Z,990.6
2023-01-30T11:54:52.262Z,991
2023-01-30T12:00:11.392Z,990.9
2023-01-30T12:05:30.566Z,990.7
2023-01-30T12:10:49.987Z,990.5
2023-01-30T12:16:09.755Z,990.8
2023-01-30T12:21:29.071Z,990.9
2023-01-30T12:26:48.369Z,990.9
2023-01-30T12:32:08.790Z,990.9
2023-01-30T12:37:26.517Z,990.8
2023-01-30T12:42:46.263Z,991
2023-01-30T12:48:05.709Z,991
2023-01-30T12:53:24.649Z,991.1
2023-01-30T12:58:43.481Z,991.2
2023-01-30T13:04:02.618Z,991.4
2023-01-30T13:09:21.495Z,991.2
2023-01-30T13:14:40.456Z,991.2
2023-01-30T13:19:59.520Z,991.1
2023-01-30T13:25:18.278Z,991.1
2023-01-30T13:30:37.395Z,991.1
2023-01-30T13:35:56.979Z,990.9
2023-01-30T13:41:16.696Z,991.1
2023-01-30T13:46:35.586Z,991.2
2023-01-30T13:51:54.878Z,991.1
2023-01-30T13:57:14.063Z,991
2023-01-30T14:02:32.932Z,991.1
2023-01-30T14:07:52.030Z,991
2023-01-30T14:13:11.415Z,991
2023-01-30T14:18:31.269Z,991
2023-01-30T14:25:05.335Z,991.2
2023-01-30T14:29:10.635Z,991.3
2023-01-30T14:34:29.878Z,991.4
2023-01-30T14:39:48.972Z,991.3
2023-01-30T14:45:08.305Z,991.5
2023-01-30T14:50:27.247Z,991.3
2023-01-30T14:55:45.506Z,991.4
2023-01-30T15:01:04.828Z,991.6
2023-01-30T15:06:23.282Z,991.7
2023-01-30T15:11:42.768Z,991.7
2023-01-30T15:17:02.369Z,991.9
2023-01-30T15:22:21.547Z,991.8
2023-01-30T15:27:40.918Z,991.9
2023-01-30T15:33:00.355Z,992
2023-01-30T15:38:19.638Z,992.2
2023-01-30T15:43:39.382Z,992.3
2023-01-30T15:48:58.434Z,992.4
2023-01-30T15:54:18.018Z,992.6
2023-01-30T15:59:37.741Z,992.4
2023-01-30T16:04:57.211Z,992.7
2023-01-30T16:10:16.255Z,992.6
2023-01-30T16:15:35.973Z,992.7
2023-01-30T16:21:01.887Z,992.7
2023-01-30T16:26:14.390Z,993
2023-01-30T16:31:33.281Z,993
2023-01-30T16:36:52.369Z,993
2023-01-30T16:42:11.197Z,992.8
2023-01-30T16:47:30.437Z,993
2023-01-30T16:52:49.763Z,993.1
2023-01-30T16:58:09.113Z,993.2
2023-01-30T17:03:28.207Z,993.3
2023-01-30T17:08:47.268Z,993.5
2023-01-30T17:14:06.609Z,993.6
2023-01-30T17:19:26.180Z,993.4
2023-01-30T17:24:45.327Z,993.6
2023-01-30T17:30:04.791Z,993.7
2023-01-30T17:35:25.170Z,993.8
2023-01-30T17:41:59.360Z,993.7
2023-01-30T17:46:04.400Z,993.8
2023-01-30T17:51:23.672Z,993.7
2023-01-30T17:56:42.616Z,993.8
2023-01-30T18:02:02.010Z,994
2023-01-30T18:07:21.194Z,994.2
2023-01-30T18:12:40.718Z,994.3
2023-01-30T18:18:00.371Z,994.3
2023-01-30T18:23:20.169Z,994.4
2023-01-30T18:28:39.208Z,994.5
2023-01-30T18:33:59.013Z,994.6
2023-01-30T18:39:18.058Z,994.6
2023-01-30T18:44:37.727Z,994.6
2023-01-30T18:49:56.919Z,994.8
2023-01-30T18:55:16.444Z,994.7
2023-01-30T19:00:34.692Z,994.9
2023-01-30T19:05:54.265Z,995.1
2023-01-30T19:11:13.753Z,995.1
2023-01-30T19:16:32.921Z,995.2
2023-01-30T19:21:52.022Z,995.2
2023-01-30T19:27:11.004Z,995.1
2023-01-30T19:32:30.386Z,995.3
2023-01-30T19:37:51.009Z,995.4
2023-01-30T19:43:11.038Z,995.3
2023-01-30T19:48:29.640Z,995.4
2023-01-30T19:53:48.319Z,995.4
2023-01-30T19:59:07.199Z,995.5
2023-01-30T20:04:26.578Z,995.8
2023-01-30T20:09:45.510Z,995.8
2023-01-30T20:15:05.230Z,995.9
2023-01-30T20:20:24.448Z,995.8
2023-01-30T20:25:43.889Z,995.8
2023-01-30T20:31:02.836Z,995.9
2023-01-30T20:36:21.721Z,995.8
2023-01-30T20:41:40.820Z,995.9
2023-01-30T20:46:59.777Z,995.9
2023-01-30T20:52:18.595Z,996
2023-01-30T20:57:38.397Z,995.8
2023-01-30T21:02:57.200Z,996
2023-01-30T21:08:16.803Z,996.1
2023-01-30T21:13:36.957Z,996.2
2023-01-30T21:14:02.661Z,996.2
2023-01-30T21:19:21.948Z,996.3
2023-01-30T21:24:41.012Z,996.4
2023-01-30T21:30:00.314Z,996.4
2023-01-30T21:35:19.695Z,996.4
2023-01-30T21:40:39.058Z,996.3
2023-01-30T21:45:57.936Z,996.4
2023-01-30T21:51:17.608Z,996.5
2023-01-30T21:56:37.575Z,996.5
2023-01-30T22:01:56.331Z,996.6
2023-01-30T22:07:15.532Z,996.6
2023-01-30T22:12:35.052Z,996.7
2023-01-30T22:17:54.362Z,996.8
2023-01-30T22:23:13.193Z,996.9
2023-01-30T22:28:32.971Z,997
2023-01-30T22:33:52.044Z,996.8
2023-01-30T22:39:11.291Z,997
2023-01-30T22:44:30.889Z,997
2023-01-30T22:49:49.983Z,997
2023-01-30T22:55:09.593Z,997.1
2023-01-30T23:00:28.604Z,997.1
2023-01-30T23:05:48.116Z,997.1
2023-01-30T23:11:08.157Z,997.2
2023-01-30T23:16:27.601Z,997.2
2023-01-30T23:21:47.100Z,997.1
2023-01-30T23:27:05.730Z,997.1
2023-01-30T23:32:24.635Z,997.1
2023-01-30T23:37:44.611Z,997.1
2023-01-30T23:43:03.726Z,997.2
2023-01-30T23:48:22.884Z,997.2
2023-01-30T23:53:41.799Z,997.2
2023-01-30T23:59:01.166Z,997.1
